Blair, Illinois
Current Conditions -  °F | °C
As of 11:55 AM on Wednesday 28 Jan 2015 (Local Time) from KFOA Reporting Station
Clear Clear  
Wind Chill: -1°   Ceiling: Unl
Heat Index:   Visibility: 10mi
Dew Point: -1°   Wind: 13mph
Humidity: 74%   Direction: 160°SSE
Pressure: 30.26"   Gusts: NA
Location:  38.8267°N, 88.5024°W
Report Text: KFOA 281755Z AUTO 16011KT 10SM CLR 03/M01 A3026 RMK AO2 T00331009 10033 21046
Loading
Personal Weather Stations






























Interactive Weather Map New forecast layout! Learn more

10-Day Weather Forecast

Advertisements
Track Severe Weather on mobile